sensor_id;sensor_type;location;lat;lon;timestamp;temperature;humidity
40758;DHT22;26462;47.384;19.218;2022-11-12T00:01:30;6.80;99.90
40758;DHT22;26462;47.384;19.218;2022-11-12T00:04:16;6.80;99.90
40758;DHT22;26462;47.384;19.218;2022-11-12T00:07:02;6.80;99.90
40758;DHT22;26462;47.384;19.218;2022-11-12T00:09:47;6.80;99.90
40758;DHT22;26462;47.384;19.218;2022-11-12T00:12:33;6.80;99.90
40758;DHT22;26462;47.384;19.218;2022-11-12T00:15:20;6.80;99.90
40758;DHT22;26462;47.384;19.218;2022-11-12T00:18:06;6.80;99.90
40758;DHT22;26462;47.384;19.218;2022-11-12T00:20:52;6.80;99.90
40758;DHT22;26462;47.384;19.218;2022-11-12T00:23:37;6.80;99.90
40758;DHT22;26462;47.384;19.218;2022-11-12T00:26:23;6.80;99.90
40758;DHT22;26462;47.384;19.218;2022-11-12T00:29:09;6.90;99.90
40758;DHT22;26462;47.384;19.218;2022-11-12T00:31:55;6.90;99.90
40758;DHT22;26462;47.384;19.218;2022-11-12T00:34:40;6.80;99.90
40758;DHT22;26462;47.384;19.218;2022-11-12T00:37:26;6.90;99.90
40758;DHT22;26462;47.384;19.218;2022-11-12T00:40:11;6.80;99.90
40758;DHT22;26462;47.384;19.218;2022-11-12T00:42:57;6.80;99.90
40758;DHT22;26462;47.384;19.218;2022-11-12T00:45:43;6.80;99.90
40758;DHT22;26462;47.384;19.218;2022-11-12T00:48:28;6.90;99.90
40758;DHT22;26462;47.384;19.218;2022-11-12T00:51:14;6.80;99.90
40758;DHT22;26462;47.384;19.218;2022-11-12T00:54:00;6.90;99.90
40758;DHT22;26462;47.384;19.218;2022-11-12T00:56:46;6.80;99.90
40758;DHT22;26462;47.384;19.218;2022-11-12T00:59:32;6.90;99.90
40758;DHT22;26462;47.384;19.218;2022-11-12T01:02:18;6.80;99.90
40758;DHT22;26462;47.384;19.218;2022-11-12T01:05:05;6.90;99.90
40758;DHT22;26462;47.384;19.218;2022-11-12T01:07:51;6.90;99.90
40758;DHT22;26462;47.384;19.218;2022-11-12T01:10:40;6.80;99.90
40758;DHT22;26462;47.384;19.218;2022-11-12T01:13:26;6.90;99.90
40758;DHT22;26462;47.384;19.218;2022-11-12T01:16:18;6.90;99.90
40758;DHT22;26462;47.384;19.218;2022-11-12T01:19:08;6.90;99.90
40758;DHT22;26462;47.384;19.218;2022-11-12T01:21:58;6.90;99.90
40758;DHT22;26462;47.384;19.218;2022-11-12T01:24:43;6.90;99.90
40758;DHT22;26462;47.384;19.218;2022-11-12T01:27:29;6.90;99.90
40758;DHT22;26462;47.384;19.218;2022-11-12T01:30:17;6.90;99.90
40758;DHT22;26462;47.384;19.218;2022-11-12T01:33:03;6.90;99.90
40758;DHT22;26462;47.384;19.218;2022-11-12T01:35:48;6.90;99.90
40758;DHT22;26462;47.384;19.218;2022-11-12T01:38:36;6.90;99.90
40758;DHT22;26462;47.384;19.218;2022-11-12T01:41:25;6.90;99.90
40758;DHT22;26462;47.384;19.218;2022-11-12T01:44:15;6.90;99.90
40758;DHT22;26462;47.384;19.218;2022-11-12T01:47:19;6.90;99.90
40758;DHT22;26462;47.384;19.218;2022-11-12T01:53:04;6.80;99.90
40758;DHT22;26462;47.384;19.218;2022-11-12T01:55:51;6.90;99.90
40758;DHT22;26462;47.384;19.218;2022-11-12T01:58:38;6.90;99.90
40758;DHT22;26462;47.384;19.218;2022-11-12T02:01:25;6.80;99.90
40758;DHT22;26462;47.384;19.218;2022-11-12T02:04:11;6.80;99.90
40758;DHT22;26462;47.384;19.218;2022-11-12T02:06:57;6.80;99.90
40758;DHT22;26462;47.384;19.218;2022-11-12T02:09:43;6.80;99.90
40758;DHT22;26462;47.384;19.218;2022-11-12T02:12:29;6.80;99.90
40758;DHT22;26462;47.384;19.218;2022-11-12T02:15:33;6.70;99.90
40758;DHT22;26462;47.384;19.218;2022-11-12T02:18:18;6.70;99.90
40758;DHT22;26462;47.384;19.218;2022-11-12T02:21:07;6.70;99.90
40758;DHT22;26462;47.384;19.218;2022-11-12T02:26:57;6.70;99.90
40758;DHT22;26462;47.384;19.218;2022-11-12T02:29:43;6.70;99.90
40758;DHT22;26462;47.384;19.218;2022-11-12T02:32:31;6.70;99.90
40758;DHT22;26462;47.384;19.218;2022-11-12T02:35:17;6.60;99.90
40758;DHT22;26462;47.384;19.218;2022-11-12T02:38:04;6.70;99.90
40758;DHT22;26462;47.384;19.218;2022-11-12T02:40:51;6.70;99.90
40758;DHT22;26462;47.384;19.218;2022-11-12T02:43:36;6.60;99.90
40758;DHT22;26462;47.384;19.218;2022-11-12T02:46:21;6.60;99.90
40758;DHT22;26462;47.384;19.218;2022-11-12T02:49:07;6.60;99.90
40758;DHT22;26462;47.384;19.218;2022-11-12T02:51:53;6.60;99.90
40758;DHT22;26462;47.384;19.218;2022-11-12T02:54:38;6.60;99.90
40758;DHT22;26462;47.384;19.218;2022-11-12T02:57:24;6.60;99.90
40758;DHT22;26462;47.384;19.218;2022-11-12T03:00:12;6.60;99.90
40758;DHT22;26462;47.384;19.218;2022-11-12T03:03:00;6.70;99.90
40758;DHT22;26462;47.384;19.218;2022-11-12T03:05:54;6.70;99.90
40758;DHT22;26462;47.384;19.218;2022-11-12T03:08:41;6.70;99.90
40758;DHT22;26462;47.384;19.218;2022-11-12T03:11:26;6.70;99.90
40758;DHT22;26462;47.384;19.218;2022-11-12T03:14:12;6.70;99.90
40758;DHT22;26462;47.384;19.218;2022-11-12T03:16:57;6.70;99.90
40758;DHT22;26462;47.384;19.218;2022-11-12T03:19:43;6.70;99.90
40758;DHT22;26462;47.384;19.218;2022-11-12T03:22:29;6.70;99.90
40758;DHT22;26462;47.384;19.218;2022-11-12T03:25:14;6.70;99.90
40758;DHT22;26462;47.384;19.218;2022-11-12T03:28:03;6.70;99.90
40758;DHT22;26462;47.384;19.218;2022-11-12T03:30:48;6.70;99.90
40758;DHT22;26462;47.384;19.218;2022-11-12T03:33:34;6.70;99.90
40758;DHT22;26462;47.384;19.218;2022-11-12T03:36:19;6.70;99.90
40758;DHT22;26462;47.384;19.218;2022-11-12T03:39:05;6.70;99.90
40758;DHT22;26462;47.384;19.218;2022-11-12T03:41:51;6.70;99.90
40758;DHT22;26462;47.384;19.218;2022-11-12T03:44:37;6.70;99.90
40758;DHT22;26462;47.384;19.218;2022-11-12T03:47:22;6.70;99.90
40758;DHT22;26462;47.384;19.218;2022-11-12T03:50:08;6.70;99.90
40758;DHT22;26462;47.384;19.218;2022-11-12T03:52:56;6.70;99.90
40758;DHT22;26462;47.384;19.218;2022-11-12T03:55:42;6.70;99.90
40758;DHT22;26462;47.384;19.218;2022-11-12T03:58:28;6.70;99.90
40758;DHT22;26462;47.384;19.218;2022-11-12T04:01:14;6.70;99.90
40758;DHT22;26462;47.384;19.218;2022-11-12T04:03:59;6.70;99.90
40758;DHT22;26462;47.384;19.218;2022-11-12T04:06:45;6.70;99.90
40758;DHT22;26462;47.384;19.218;2022-11-12T04:09:49;6.60;99.90
40758;DHT22;26462;47.384;19.218;2022-11-12T04:12:35;6.60;99.90
40758;DHT22;26462;47.384;19.218;2022-11-12T04:15:39;6.60;99.90
40758;DHT22;26462;47.384;19.218;2022-11-12T04:18:24;6.60;99.90
40758;DHT22;26462;47.384;19.218;2022-11-12T04:21:40;6.60;99.90
40758;DHT22;26462;47.384;19.218;2022-11-12T04:24:39;6.50;99.90
40758;DHT22;26462;47.384;19.218;2022-11-12T04:27:43;6.50;99.90
40758;DHT22;26462;47.384;19.218;2022-11-12T04:30:29;6.50;99.90
40758;DHT22;26462;47.384;19.218;2022-11-12T04:33:17;6.50;99.90
40758;DHT22;26462;47.384;19.218;2022-11-12T04:36:03;6.50;99.90
40758;DHT22;26462;47.384;19.218;2022-11-12T04:38:49;6.40;99.90
40758;DHT22;26462;47.384;19.218;2022-11-12T04:41:34;6.40;99.90
40758;DHT22;26462;47.384;19.218;2022-11-12T04:44:41;6.40;99.90
40758;DHT22;26462;47.384;19.218;2022-11-12T04:47:45;6.40;99.90
40758;DHT22;26462;47.384;19.218;2022-11-12T04:50:31;6.40;99.90
40758;DHT22;26462;47.384;19.218;2022-11-12T04:53:17;6.30;99.90
40758;DHT22;26462;47.384;19.218;2022-11-12T04:56:02;6.30;99.90
40758;DHT22;26462;47.384;19.218;2022-11-12T04:58:48;6.30;99.90
40758;DHT22;26462;47.384;19.218;2022-11-12T05:01:34;6.30;99.90
40758;DHT22;26462;47.384;19.218;2022-11-12T05:04:21;6.20;99.90
40758;DHT22;26462;47.384;19.218;2022-11-12T05:07:07;6.30;99.90
40758;DHT22;26462;47.384;19.218;2022-11-12T05:09:54;6.20;99.90
40758;DHT22;26462;47.384;19.218;2022-11-12T05:12:41;6.20;99.90
40758;DHT22;26462;47.384;19.218;2022-11-12T05:15:26;6.20;99.90
40758;DHT22;26462;47.384;19.218;2022-11-12T05:18:12;6.20;99.90
40758;DHT22;26462;47.384;19.218;2022-11-12T05:20:58;6.10;99.90
40758;DHT22;26462;47.384;19.218;2022-11-12T05:24:03;6.20;99.90
40758;DHT22;26462;47.384;19.218;2022-11-12T05:26:49;6.20;99.90
40758;DHT22;26462;47.384;19.218;2022-11-12T05:29:35;6.20;99.90
40758;DHT22;26462;47.384;19.218;2022-11-12T05:32:20;6.20;99.90
40758;DHT22;26462;47.384;19.218;2022-11-12T05:35:06;6.20;99.90
40758;DHT22;26462;47.384;19.218;2022-11-12T05:37:52;6.20;99.90
40758;DHT22;26462;47.384;19.218;2022-11-12T05:40:37;6.20;99.90
40758;DHT22;26462;47.384;19.218;2022-11-12T05:43:23;6.20;99.90
40758;DHT22;26462;47.384;19.218;2022-11-12T05:46:11;6.20;99.90
40758;DHT22;26462;47.384;19.218;2022-11-12T05:48:57;6.20;99.90
40758;DHT22;26462;47.384;19.218;2022-11-12T05:51:43;6.20;99.90
40758;DHT22;26462;47.384;19.218;2022-11-12T05:54:29;6.30;99.90
40758;DHT22;26462;47.384;19.218;2022-11-12T05:57:14;6.20;99.90
40758;DHT22;26462;47.384;19.218;2022-11-12T05:59:59;6.20;99.90
40758;DHT22;26462;47.384;19.218;2022-11-12T06:02:45;6.30;99.90
40758;DHT22;26462;47.384;19.218;2022-11-12T06:05:32;6.20;99.90
40758;DHT22;26462;47.384;19.218;2022-11-12T06:08:17;6.30;99.90
40758;DHT22;26462;47.384;19.218;2022-11-12T06:11:04;6.30;99.90
40758;DHT22;26462;47.384;19.218;2022-11-12T06:13:49;6.30;99.90
40758;DHT22;26462;47.384;19.218;2022-11-12T06:16:34;6.30;99.90
40758;DHT22;26462;47.384;19.218;2022-11-12T06:19:20;6.40;99.90
40758;DHT22;26462;47.384;19.218;2022-11-12T06:22:05;6.40;99.90
40758;DHT22;26462;47.384;19.218;2022-11-12T06:24:54;6.40;99.90
40758;DHT22;26462;47.384;19.218;2022-11-12T06:27:40;6.40;99.90
40758;DHT22;26462;47.384;19.218;2022-11-12T06:30:26;6.50;99.90
40758;DHT22;26462;47.384;19.218;2022-11-12T06:33:11;6.50;99.90
40758;DHT22;26462;47.384;19.218;2022-11-12T06:36:01;6.50;99.90
40758;DHT22;26462;47.384;19.218;2022-11-12T06:38:48;6.60;99.90
40758;DHT22;26462;47.384;19.218;2022-11-12T06:41:33;6.50;99.90
40758;DHT22;26462;47.384;19.218;2022-11-12T06:44:19;6.60;99.90
40758;DHT22;26462;47.384;19.218;2022-11-12T06:47:06;6.60;99.90
40758;DHT22;26462;47.384;19.218;2022-11-12T06:49:52;6.70;99.90
40758;DHT22;26462;47.384;19.218;2022-11-12T06:52:37;6.70;99.90
40758;DHT22;26462;47.384;19.218;2022-11-12T06:55:23;6.80;99.90
40758;DHT22;26462;47.384;19.218;2022-11-12T06:58:08;6.90;99.90
40758;DHT22;26462;47.384;19.218;2022-11-12T07:00:54;6.90;99.90
40758;DHT22;26462;47.384;19.218;2022-11-12T07:03:40;7.00;99.90
40758;DHT22;26462;47.384;19.218;2022-11-12T07:06:27;7.00;99.90
40758;DHT22;26462;47.384;19.218;2022-11-12T07:09:12;7.00;99.90
40758;DHT22;26462;47.384;19.218;2022-11-12T07:11:58;7.00;99.90
40758;DHT22;26462;47.384;19.218;2022-11-12T07:14:43;7.10;99.90
40758;DHT22;26462;47.384;19.218;2022-11-12T07:17:29;7.10;99.90
40758;DHT22;26462;47.384;19.218;2022-11-12T07:20:15;7.20;99.90
40758;DHT22;26462;47.384;19.218;2022-11-12T07:23:01;7.20;99.90
40758;DHT22;26462;47.384;19.218;2022-11-12T07:25:46;7.30;99.90
40758;DHT22;26462;47.384;19.218;2022-11-12T07:28:32;7.30;99.90
40758;DHT22;26462;47.384;19.218;2022-11-12T07:31:19;7.40;99.90
40758;DHT22;26462;47.384;19.218;2022-11-12T07:34:05;7.50;99.90
40758;DHT22;26462;47.384;19.218;2022-11-12T07:36:50;7.60;99.90
40758;DHT22;26462;47.384;19.218;2022-11-12T07:39:35;7.60;99.90
40758;DHT22;26462;47.384;19.218;2022-11-12T07:42:21;7.70;99.90
40758;DHT22;26462;47.384;19.218;2022-11-12T07:45:07;7.70;99.90
40758;DHT22;26462;47.384;19.218;2022-11-12T07:47:53;7.70;99.90
40758;DHT22;26462;47.384;19.218;2022-11-12T07:50:39;7.70;99.90
40758;DHT22;26462;47.384;19.218;2022-11-12T07:53:24;7.70;99.90
40758;DHT22;26462;47.384;19.218;2022-11-12T07:56:22;7.70;99.90
40758;DHT22;26462;47.384;19.218;2022-11-12T07:59:08;7.70;99.90
40758;DHT22;26462;47.384;19.218;2022-11-12T08:01:54;7.70;99.90
40758;DHT22;26462;47.384;19.218;2022-11-12T08:04:39;7.80;99.90
40758;DHT22;26462;47.384;19.218;2022-11-12T08:07:25;7.90;99.90
40758;DHT22;26462;47.384;19.218;2022-11-12T08:10:10;8.00;99.90
40758;DHT22;26462;47.384;19.218;2022-11-12T08:12:56;8.10;99.90
40758;DHT22;26462;47.384;19.218;2022-11-12T08:15:42;8.30;99.90
40758;DHT22;26462;47.384;19.218;2022-11-12T08:18:35;8.60;99.90
40758;DHT22;26462;47.384;19.218;2022-11-12T08:21:20;8.70;99.90
40758;DHT22;26462;47.384;19.218;2022-11-12T08:24:06;8.80;99.90
40758;DHT22;26462;47.384;19.218;2022-11-12T08:26:52;8.80;99.90
40758;DHT22;26462;47.384;19.218;2022-11-12T08:29:37;8.80;99.90
40758;DHT22;26462;47.384;19.218;2022-11-12T08:32:23;8.90;99.90
40758;DHT22;26462;47.384;19.218;2022-11-12T08:35:09;8.90;99.90
40758;DHT22;26462;47.384;19.218;2022-11-12T08:37:59;8.90;99.90
40758;DHT22;26462;47.384;19.218;2022-11-12T08:40:46;8.90;99.90
40758;DHT22;26462;47.384;19.218;2022-11-12T08:43:31;9.00;99.90
40758;DHT22;26462;47.384;19.218;2022-11-12T08:46:17;9.10;99.90
40758;DHT22;26462;47.384;19.218;2022-11-12T08:49:03;9.10;99.90
40758;DHT22;26462;47.384;19.218;2022-11-12T08:51:48;9.10;99.90
40758;DHT22;26462;47.384;19.218;2022-11-12T08:54:34;9.20;99.90
40758;DHT22;26462;47.384;19.218;2022-11-12T08:57:20;9.20;99.90
40758;DHT22;26462;47.384;19.218;2022-11-12T09:00:06;9.30;99.90
40758;DHT22;26462;47.384;19.218;2022-11-12T09:02:52;9.30;99.90
40758;DHT22;26462;47.384;19.218;2022-11-12T09:05:38;9.40;99.90
40758;DHT22;26462;47.384;19.218;2022-11-12T09:08:24;9.40;99.90
40758;DHT22;26462;47.384;19.218;2022-11-12T09:11:10;9.50;99.90
40758;DHT22;26462;47.384;19.218;2022-11-12T09:13:56;9.70;99.90
40758;DHT22;26462;47.384;19.218;2022-11-12T09:16:41;9.80;99.90
40758;DHT22;26462;47.384;19.218;2022-11-12T09:19:27;9.80;99.90
40758;DHT22;26462;47.384;19.218;2022-11-12T09:22:13;9.90;99.90
40758;DHT22;26462;47.384;19.218;2022-11-12T09:24:58;10.00;99.90
40758;DHT22;26462;47.384;19.218;2022-11-12T09:27:44;10.20;99.90
40758;DHT22;26462;47.384;19.218;2022-11-12T09:30:33;10.30;99.90
40758;DHT22;26462;47.384;19.218;2022-11-12T09:33:25;10.40;99.90
40758;DHT22;26462;47.384;19.218;2022-11-12T09:36:11;10.60;99.90
40758;DHT22;26462;47.384;19.218;2022-11-12T09:38:57;10.70;99.90
40758;DHT22;26462;47.384;19.218;2022-11-12T09:41:42;10.80;99.90
40758;DHT22;26462;47.384;19.218;2022-11-12T09:44:29;10.90;99.90
40758;DHT22;26462;47.384;19.218;2022-11-12T09:47:25;11.00;99.90
40758;DHT22;26462;47.384;19.218;2022-11-12T09:50:35;11.10;99.90
40758;DHT22;26462;47.384;19.218;2022-11-12T09:56:47;11.10;99.90
40758;DHT22;26462;47.384;19.218;2022-11-12T09:59:38;11.30;99.90
40758;DHT22;26462;47.384;19.218;2022-11-12T10:02:33;11.40;99.90
40758;DHT22;26462;47.384;19.218;2022-11-12T10:05:41;11.60;99.90
40758;DHT22;26462;47.384;19.218;2022-11-12T10:09:12;11.70;99.90
40758;DHT22;26462;47.384;19.218;2022-11-12T10:12:19;11.70;99.90
40758;DHT22;26462;47.384;19.218;2022-11-12T10:25:16;12.10;99.90
40758;DHT22;26462;47.384;19.218;2022-11-12T10:28:44;12.20;99.90
40758;DHT22;26462;47.384;19.218;2022-11-12T10:31:23;12.30;99.90
40758;DHT22;26462;47.384;19.218;2022-11-12T10:37:10;12.50;99.90
40758;DHT22;26462;47.384;19.218;2022-11-12T10:39:57;12.40;99.90
40758;DHT22;26462;47.384;19.218;2022-11-12T10:42:57;12.50;99.90
40758;DHT22;26462;47.384;19.218;2022-11-12T10:45:45;12.40;99.90
40758;DHT22;26462;47.384;19.218;2022-11-12T10:48:31;12.40;99.90
40758;DHT22;26462;47.384;19.218;2022-11-12T10:51:24;12.50;99.90
40758;DHT22;26462;47.384;19.218;2022-11-12T10:54:33;12.60;99.90
40758;DHT22;26462;47.384;19.218;2022-11-12T10:57:22;12.50;99.90
40758;DHT22;26462;47.384;19.218;2022-11-12T11:02:58;12.60;99.90
40758;DHT22;26462;47.384;19.218;2022-11-12T11:08:48;12.70;99.90
40758;DHT22;26462;47.384;19.218;2022-11-12T11:11:34;12.80;99.90
40758;DHT22;26462;47.384;19.218;2022-11-12T11:14:26;12.80;99.90
40758;DHT22;26462;47.384;19.218;2022-11-12T11:17:16;12.90;99.90
40758;DHT22;26462;47.384;19.218;2022-11-12T11:20:23;12.90;99.90
40758;DHT22;26462;47.384;19.218;2022-11-12T11:23:18;12.80;99.90
40758;DHT22;26462;47.384;19.218;2022-11-12T11:26:41;12.60;99.90
40758;DHT22;26462;47.384;19.218;2022-11-12T11:32:46;12.40;99.90
40758;DHT22;26462;47.384;19.218;2022-11-12T11:39:00;12.50;99.90
40758;DHT22;26462;47.384;19.218;2022-11-12T11:41:59;12.40;99.90
40758;DHT22;26462;47.384;19.218;2022-11-12T11:45:17;12.40;99.90
40758;DHT22;26462;47.384;19.218;2022-11-12T11:51:24;12.40;99.90
40758;DHT22;26462;47.384;19.218;2022-11-12T12:10:11;12.40;99.90
40758;DHT22;26462;47.384;19.218;2022-11-12T12:13:05;12.30;99.90
40758;DHT22;26462;47.384;19.218;2022-11-12T12:19:17;12.20;99.90
40758;DHT22;26462;47.384;19.218;2022-11-12T12:22:11;12.20;99.90
40758;DHT22;26462;47.384;19.218;2022-11-12T12:25:06;12.30;99.90
40758;DHT22;26462;47.384;19.218;2022-11-12T12:30:53;12.40;99.90
40758;DHT22;26462;47.384;19.218;2022-11-12T12:33:44;12.30;99.90
40758;DHT22;26462;47.384;19.218;2022-11-12T12:36:35;12.30;99.90
40758;DHT22;26462;47.384;19.218;2022-11-12T12:39:41;12.30;99.90
40758;DHT22;26462;47.384;19.218;2022-11-12T12:42:42;12.40;99.90
40758;DHT22;26462;47.384;19.218;2022-11-12T12:48:26;12.40;99.90
40758;DHT22;26462;47.384;19.218;2022-11-12T12:51:13;12.40;99.90
40758;DHT22;26462;47.384;19.218;2022-11-12T12:53:59;12.30;99.90
40758;DHT22;26462;47.384;19.218;2022-11-12T12:56:47;12.40;99.90
40758;DHT22;26462;47.384;19.218;2022-11-12T12:59:33;12.40;99.90
40758;DHT22;26462;47.384;19.218;2022-11-12T13:02:23;12.40;99.90
40758;DHT22;26462;47.384;19.218;2022-11-12T13:05:31;12.40;99.90
40758;DHT22;26462;47.384;19.218;2022-11-12T13:08:23;12.40;99.90
40758;DHT22;26462;47.384;19.218;2022-11-12T13:11:10;12.40;99.90
40758;DHT22;26462;47.384;19.218;2022-11-12T13:17:45;12.40;99.90
40758;DHT22;26462;47.384;19.218;2022-11-12T13:20:33;12.40;99.90
40758;DHT22;26462;47.384;19.218;2022-11-12T13:26:53;12.40;99.90
40758;DHT22;26462;47.384;19.218;2022-11-12T13:29:41;12.40;99.90
40758;DHT22;26462;47.384;19.218;2022-11-12T13:35:32;12.40;99.90
40758;DHT22;26462;47.384;19.218;2022-11-12T13:38:19;12.40;99.90
40758;DHT22;26462;47.384;19.218;2022-11-12T13:41:15;12.30;99.90
40758;DHT22;26462;47.384;19.218;2022-11-12T13:44:05;12.30;99.90
40758;DHT22;26462;47.384;19.218;2022-11-12T13:46:52;12.30;99.90
40758;DHT22;26462;47.384;19.218;2022-11-12T13:49:41;12.30;99.90
40758;DHT22;26462;47.384;19.218;2022-11-12T13:52:28;12.30;99.90
40758;DHT22;26462;47.384;19.218;2022-11-12T13:55:20;12.20;99.90
40758;DHT22;26462;47.384;19.218;2022-11-12T13:58:28;12.20;99.90
40758;DHT22;26462;47.384;19.218;2022-11-12T14:01:19;12.20;99.90
40758;DHT22;26462;47.384;19.218;2022-11-12T14:04:07;12.20;99.90
40758;DHT22;26462;47.384;19.218;2022-11-12T14:11:14;12.20;99.90
40758;DHT22;26462;47.384;19.218;2022-11-12T14:22:52;12.00;99.90
40758;DHT22;26462;47.384;19.218;2022-11-12T14:25:52;12.00;99.90
40758;DHT22;26462;47.384;19.218;2022-11-12T14:28:38;12.00;99.90
40758;DHT22;26462;47.384;19.218;2022-11-12T14:31:24;12.00;99.90
40758;DHT22;26462;47.384;19.218;2022-11-12T14:34:40;11.90;99.90
40758;DHT22;26462;47.384;19.218;2022-11-12T14:37:35;11.90;99.90
40758;DHT22;26462;47.384;19.218;2022-11-12T14:40:29;11.90;99.90
40758;DHT22;26462;47.384;19.218;2022-11-12T14:43:40;11.90;99.90
40758;DHT22;26462;47.384;19.218;2022-11-12T14:49:42;11.80;99.90
40758;DHT22;26462;47.384;19.218;2022-11-12T14:52:33;11.70;99.90
40758;DHT22;26462;47.384;19.218;2022-11-12T14:55:25;11.70;99.90
40758;DHT22;26462;47.384;19.218;2022-11-12T14:58:15;11.70;99.90
40758;DHT22;26462;47.384;19.218;2022-11-12T15:01:28;11.60;99.90
40758;DHT22;26462;47.384;19.218;2022-11-12T15:04:41;11.60;99.90
40758;DHT22;26462;47.384;19.218;2022-11-12T15:07:32;11.60;99.90
40758;DHT22;26462;47.384;19.218;2022-11-12T15:13:22;11.50;99.90
40758;DHT22;26462;47.384;19.218;2022-11-12T15:16:18;11.50;99.90
40758;DHT22;26462;47.384;19.218;2022-11-12T15:19:22;11.50;99.90
40758;DHT22;26462;47.384;19.218;2022-11-12T15:22:19;11.40;99.90
40758;DHT22;26462;47.384;19.218;2022-11-12T15:28:22;11.40;99.90
40758;DHT22;26462;47.384;19.218;2022-11-12T15:31:20;11.40;99.90
40758;DHT22;26462;47.384;19.218;2022-11-12T15:34:28;11.30;99.90
40758;DHT22;26462;47.384;19.218;2022-11-12T15:40:16;11.30;99.90
40758;DHT22;26462;47.384;19.218;2022-11-12T15:43:03;11.30;99.90
40758;DHT22;26462;47.384;19.218;2022-11-12T15:45:55;11.30;99.90
40758;DHT22;26462;47.384;19.218;2022-11-12T15:48:41;11.20;99.90
40758;DHT22;26462;47.384;19.218;2022-11-12T15:51:27;11.20;99.90
40758;DHT22;26462;47.384;19.218;2022-11-12T15:54:12;11.20;99.90
40758;DHT22;26462;47.384;19.218;2022-11-12T15:56:58;11.20;99.90
40758;DHT22;26462;47.384;19.218;2022-11-12T15:59:44;11.10;99.90
40758;DHT22;26462;47.384;19.218;2022-11-12T16:02:32;11.20;99.90
40758;DHT22;26462;47.384;19.218;2022-11-12T16:05:18;11.10;99.90
40758;DHT22;26462;47.384;19.218;2022-11-12T16:08:04;11.10;99.90
40758;DHT22;26462;47.384;19.218;2022-11-12T16:10:49;11.10;99.90
40758;DHT22;26462;47.384;19.218;2022-11-12T16:13:35;11.00;99.90
40758;DHT22;26462;47.384;19.218;2022-11-12T16:16:21;11.00;99.90
40758;DHT22;26462;47.384;19.218;2022-11-12T16:19:13;10.90;99.90
40758;DHT22;26462;47.384;19.218;2022-11-12T16:22:00;10.90;99.90
40758;DHT22;26462;47.384;19.218;2022-11-12T16:24:46;10.90;99.90
40758;DHT22;26462;47.384;19.218;2022-11-12T16:27:31;10.80;99.90
40758;DHT22;26462;47.384;19.218;2022-11-12T16:30:24;10.80;99.90
40758;DHT22;26462;47.384;19.218;2022-11-12T16:33:11;10.70;99.90
40758;DHT22;26462;47.384;19.218;2022-11-12T16:35:57;10.70;99.90
40758;DHT22;26462;47.384;19.218;2022-11-12T16:38:44;10.70;99.90
40758;DHT22;26462;47.384;19.218;2022-11-12T16:41:30;10.70;99.90
40758;DHT22;26462;47.384;19.218;2022-11-12T16:44:16;10.60;99.90
40758;DHT22;26462;47.384;19.218;2022-11-12T16:47:03;10.60;99.90
40758;DHT22;26462;47.384;19.218;2022-11-12T16:49:49;10.50;99.90
40758;DHT22;26462;47.384;19.218;2022-11-12T16:52:34;10.50;99.90
40758;DHT22;26462;47.384;19.218;2022-11-12T16:55:20;10.40;99.90
40758;DHT22;26462;47.384;19.218;2022-11-12T16:58:06;10.40;99.90
40758;DHT22;26462;47.384;19.218;2022-11-12T17:00:52;10.40;99.90
40758;DHT22;26462;47.384;19.218;2022-11-12T17:03:38;10.40;99.90
40758;DHT22;26462;47.384;19.218;2022-11-12T17:06:34;10.30;99.90
40758;DHT22;26462;47.384;19.218;2022-11-12T17:09:21;10.30;99.90
40758;DHT22;26462;47.384;19.218;2022-11-12T17:12:07;10.20;99.90
40758;DHT22;26462;47.384;19.218;2022-11-12T17:14:53;10.20;99.90
40758;DHT22;26462;47.384;19.218;2022-11-12T17:17:38;10.20;99.90
40758;DHT22;26462;47.384;19.218;2022-11-12T17:20:24;10.20;99.90
40758;DHT22;26462;47.384;19.218;2022-11-12T17:23:10;10.20;99.90
40758;DHT22;26462;47.384;19.218;2022-11-12T17:26:03;10.20;99.90
40758;DHT22;26462;47.384;19.218;2022-11-12T17:28:49;10.20;99.90
40758;DHT22;26462;47.384;19.218;2022-11-12T17:31:47;10.20;99.90
40758;DHT22;26462;47.384;19.218;2022-11-12T17:34:33;10.10;99.90
40758;DHT22;26462;47.384;19.218;2022-11-12T17:37:19;10.10;99.90
40758;DHT22;26462;47.384;19.218;2022-11-12T17:40:05;10.10;99.90
40758;DHT22;26462;47.384;19.218;2022-11-12T17:42:52;10.10;99.90
40758;DHT22;26462;47.384;19.218;2022-11-12T17:45:50;10.10;99.90
40758;DHT22;26462;47.384;19.218;2022-11-12T17:48:37;10.10;99.90
40758;DHT22;26462;47.384;19.218;2022-11-12T17:51:27;10.10;99.90
40758;DHT22;26462;47.384;19.218;2022-11-12T17:54:13;10.10;99.90
40758;DHT22;26462;47.384;19.218;2022-11-12T17:56:59;10.10;99.90
40758;DHT22;26462;47.384;19.218;2022-11-12T17:59:45;10.10;99.90
40758;DHT22;26462;47.384;19.218;2022-11-12T18:02:31;10.10;99.90
40758;DHT22;26462;47.384;19.218;2022-11-12T18:05:17;10.10;99.90
40758;DHT22;26462;47.384;19.218;2022-11-12T18:08:03;10.10;99.90
40758;DHT22;26462;47.384;19.218;2022-11-12T18:10:49;10.10;99.90
40758;DHT22;26462;47.384;19.218;2022-11-12T18:13:36;10.10;99.90
40758;DHT22;26462;47.384;19.218;2022-11-12T18:16:27;10.10;99.90
40758;DHT22;26462;47.384;19.218;2022-11-12T18:19:14;10.10;99.90
40758;DHT22;26462;47.384;19.218;2022-11-12T18:21:59;10.10;99.90
40758;DHT22;26462;47.384;19.218;2022-11-12T18:24:47;10.10;99.90
40758;DHT22;26462;47.384;19.218;2022-11-12T18:27:33;10.10;99.90
40758;DHT22;26462;47.384;19.218;2022-11-12T18:30:19;10.10;99.90
40758;DHT22;26462;47.384;19.218;2022-11-12T18:33:05;10.10;99.90
40758;DHT22;26462;47.384;19.218;2022-11-12T18:36:02;10.10;99.90
40758;DHT22;26462;47.384;19.218;2022-11-12T18:38:53;10.10;99.90
40758;DHT22;26462;47.384;19.218;2022-11-12T18:41:39;10.10;99.90
40758;DHT22;26462;47.384;19.218;2022-11-12T18:44:25;10.10;99.90
40758;DHT22;26462;47.384;19.218;2022-11-12T18:47:11;10.10;99.90
40758;DHT22;26462;47.384;19.218;2022-11-12T18:49:56;10.10;99.90
40758;DHT22;26462;47.384;19.218;2022-11-12T18:52:42;10.10;99.90
40758;DHT22;26462;47.384;19.218;2022-11-12T18:55:27;10.00;99.90
40758;DHT22;26462;47.384;19.218;2022-11-12T18:58:13;10.10;99.90
40758;DHT22;26462;47.384;19.218;2022-11-12T19:01:07;10.10;99.90
40758;DHT22;26462;47.384;19.218;2022-11-12T19:03:55;10.10;99.90
40758;DHT22;26462;47.384;19.218;2022-11-12T19:06:41;10.00;99.90
40758;DHT22;26462;47.384;19.218;2022-11-12T19:09:26;10.10;99.90
40758;DHT22;26462;47.384;19.218;2022-11-12T19:12:15;10.00;99.90
40758;DHT22;26462;47.384;19.218;2022-11-12T19:15:01;10.00;99.90
40758;DHT22;26462;47.384;19.218;2022-11-12T19:17:47;10.00;99.90
40758;DHT22;26462;47.384;19.218;2022-11-12T19:20:32;10.10;99.90